createdAt,value
2022-10-23T00:00:02.153Z,12.76
2022-10-23T00:01:02.189Z,12.74
2022-10-23T00:02:02.298Z,12.77
2022-10-23T00:03:02.589Z,12.78
2022-10-23T00:04:02.706Z,12.79
2022-10-23T00:05:02.608Z,12.78
2022-10-23T00:06:02.111Z,12.80
2022-10-23T00:07:03.367Z,12.81
2022-10-23T00:08:02.851Z,12.82
2022-10-23T00:09:03.296Z,12.79
2022-10-23T00:10:02.777Z,12.76
2022-10-23T00:11:03.404Z,12.73
2022-10-23T00:12:02.078Z,12.71
2022-10-23T00:13:02.724Z,12.66
2022-10-23T00:14:02.123Z,12.63
2022-10-23T00:15:02.413Z,12.54
2022-10-23T00:16:02.282Z,12.46
2022-10-23T00:17:02.523Z,12.37
2022-10-23T00:18:02.702Z,12.35
2022-10-23T00:19:02.769Z,12.33
2022-10-23T00:20:02.291Z,12.32
2022-10-23T00:21:02.690Z,12.33
2022-10-23T00:22:03.045Z,12.34
2022-10-23T00:23:02.748Z,12.32
2022-10-23T00:24:02.662Z,12.30
2022-10-23T00:25:02.587Z,12.25
2022-10-23T00:26:03.221Z,12.22
2022-10-23T00:27:03.228Z,12.19
2022-10-23T00:28:03.105Z,12.17
2022-10-23T00:29:02.922Z,12.16
2022-10-23T00:30:03.004Z,12.18
2022-10-23T00:31:02.935Z,12.22
2022-10-23T00:32:02.910Z,12.25
2022-10-23T00:33:03.091Z,12.29
2022-10-23T00:34:03.131Z,12.31
2022-10-23T00:35:02.752Z,12.33
2022-10-23T00:36:02.579Z,12.35
2022-10-23T00:37:02.974Z,12.31
2022-10-23T00:38:03.504Z,12.29
2022-10-23T00:39:03.062Z,12.23
2022-10-23T00:40:02.884Z,12.14
2022-10-23T00:41:03.177Z,12.08
2022-10-23T00:42:02.356Z,12.02
2022-10-23T00:43:02.203Z,11.96
2022-10-23T00:44:02.593Z,11.93
2022-10-23T00:45:02.263Z,11.88
2022-10-23T00:46:02.597Z,11.85
2022-10-23T00:47:02.674Z,11.85
2022-10-23T00:48:02.543Z,11.84
2022-10-23T00:49:02.408Z,11.80
2022-10-23T00:50:02.431Z,11.72
2022-10-23T00:51:02.372Z,11.63
2022-10-23T00:52:02.733Z,11.56
2022-10-23T00:53:02.680Z,11.51
2022-10-23T00:54:23.059Z,11.48
2022-10-23T00:55:02.672Z,11.48
2022-10-23T00:56:02.440Z,11.48
2022-10-23T00:57:02.302Z,11.48
2022-10-23T00:58:02.599Z,11.50
2022-10-23T00:59:02.869Z,11.51
2022-10-23T01:00:02.438Z,11.51
2022-10-23T01:01:02.861Z,11.55
2022-10-23T01:02:02.635Z,11.58
2022-10-23T01:03:02.543Z,11.62
2022-10-23T01:04:02.565Z,11.66
2022-10-23T01:05:02.657Z,11.70
2022-10-23T01:06:02.461Z,11.72
2022-10-23T01:07:02.961Z,11.73
2022-10-23T01:08:03.440Z,11.72
2022-10-23T01:09:03.228Z,11.70
2022-10-23T01:10:03.019Z,11.70
2022-10-23T01:11:03.459Z,11.71
2022-10-23T01:12:03.239Z,11.71
2022-10-23T01:13:03.640Z,11.70
2022-10-23T01:15:03.302Z,11.73
2022-10-23T01:16:03.846Z,11.73
2022-10-23T01:17:02.461Z,11.70
2022-10-23T01:18:02.699Z,11.67
2022-10-23T01:19:02.343Z,11.66
2022-10-23T01:20:02.428Z,11.64
2022-10-23T01:21:02.617Z,11.60
2022-10-23T01:22:03.329Z,11.60
2022-10-23T01:23:03.189Z,11.59
2022-10-23T01:24:03.568Z,11.58
2022-10-23T01:25:03.444Z,11.55
2022-10-23T01:26:03.282Z,11.58
2022-10-23T01:27:03.153Z,11.59
2022-10-23T01:28:03.045Z,11.63
2022-10-23T01:29:02.844Z,11.63
2022-10-23T01:30:03.242Z,11.66
2022-10-23T01:31:02.860Z,11.65
2022-10-23T01:32:03.366Z,11.67
2022-10-23T01:33:03.853Z,11.67
2022-10-23T01:34:03.861Z,11.66
2022-10-23T01:35:03.572Z,11.67
2022-10-23T01:36:03.236Z,11.67
2022-10-23T01:37:02.487Z,11.66
2022-10-23T01:38:02.522Z,11.65
2022-10-23T01:40:02.644Z,11.59
2022-10-23T01:41:02.562Z,11.59
2022-10-23T01:42:02.955Z,11.60
2022-10-23T01:43:03.038Z,11.62
2022-10-23T01:44:03.232Z,11.62
2022-10-23T01:45:03.172Z,11.60
2022-10-23T01:46:03.413Z,11.60
2022-10-23T01:47:03.290Z,11.57
2022-10-23T01:48:03.222Z,11.53
2022-10-23T01:49:03.457Z,11.52
2022-10-23T01:50:03.269Z,11.56
2022-10-23T01:51:03.216Z,11.58
2022-10-23T01:52:02.611Z,11.59
2022-10-23T01:53:02.917Z,11.62
2022-10-23T01:54:02.528Z,11.66
2022-10-23T01:55:02.953Z,11.67
2022-10-23T01:56:02.979Z,11.67
2022-10-23T01:57:02.865Z,11.69
2022-10-23T01:58:02.750Z,11.65
2022-10-23T01:59:02.955Z,11.63
2022-10-23T02:00:03.072Z,11.59
2022-10-23T02:01:02.770Z,11.55
2022-10-23T02:02:02.438Z,11.53
2022-10-23T02:03:02.529Z,11.52
2022-10-23T02:04:02.367Z,11.53
2022-10-23T02:05:02.189Z,11.53
2022-10-23T02:06:02.623Z,11.56
2022-10-23T02:07:02.899Z,11.57
2022-10-23T02:08:02.952Z,11.59
2022-10-23T02:09:03.016Z,11.62
2022-10-23T02:10:02.911Z,11.62
2022-10-23T02:11:02.693Z,11.64
2022-10-23T02:12:02.331Z,11.66
2022-10-23T02:13:01.961Z,11.66
2022-10-23T02:14:02.419Z,11.67
2022-10-23T02:15:02.097Z,11.68
2022-10-23T02:16:02.336Z,11.69
2022-10-23T02:17:02.962Z,11.70
2022-10-23T02:18:02.530Z,11.70
2022-10-23T02:19:02.482Z,11.69
2022-10-23T02:20:02.742Z,11.68
2022-10-23T02:21:02.590Z,11.69
2022-10-23T02:22:03.305Z,11.66
2022-10-23T02:23:03.183Z,11.66
2022-10-23T02:24:02.734Z,11.66
2022-10-23T02:25:03.055Z,11.67
2022-10-23T02:26:02.994Z,11.69
2022-10-23T02:27:02.482Z,11.70
2022-10-23T02:28:02.015Z,11.72
2022-10-23T02:29:02.587Z,11.74
2022-10-23T02:30:02.166Z,11.78
2022-10-23T02:31:02.289Z,11.82
2022-10-23T02:32:02.317Z,11.85
2022-10-23T02:33:02.542Z,11.85
2022-10-23T02:34:02.517Z,11.88
2022-10-23T02:35:02.331Z,11.90
2022-10-23T02:36:02.850Z,11.92
2022-10-23T02:37:03.025Z,11.93
2022-10-23T02:38:02.858Z,11.94
2022-10-23T02:39:03.278Z,11.96
2022-10-23T02:40:03.149Z,11.99
2022-10-23T02:41:03.264Z,12.01
2022-10-23T02:42:02.901Z,12.04
2022-10-23T02:43:02.547Z,12.06
2022-10-23T02:44:02.326Z,12.11
2022-10-23T02:45:02.380Z,12.12
2022-10-23T02:46:02.444Z,12.16
2022-10-23T02:47:02.999Z,12.17
2022-10-23T02:48:03.363Z,12.16
2022-10-23T02:49:03.235Z,12.18
2022-10-23T02:50:03.327Z,12.20
2022-10-23T02:51:03.337Z,12.19
2022-10-23T02:52:02.865Z,12.17
2022-10-23T02:53:02.693Z,12.18
2022-10-23T02:54:02.348Z,12.18
2022-10-23T02:55:02.926Z,12.21
2022-10-23T02:56:02.619Z,12.23
2022-10-23T02:57:03.179Z,12.25
2022-10-23T02:58:02.954Z,12.28
2022-10-23T02:59:02.861Z,12.29
2022-10-23T03:00:02.684Z,12.30
2022-10-23T03:01:02.742Z,12.30
2022-10-23T03:02:02.419Z,12.30
2022-10-23T03:03:01.878Z,12.28
2022-10-23T03:04:01.723Z,12.27
2022-10-23T03:05:02.221Z,12.26
2022-10-23T03:06:02.008Z,12.24
2022-10-23T03:07:02.510Z,12.25
2022-10-23T03:08:02.046Z,12.28
2022-10-23T03:09:01.961Z,12.32
2022-10-23T03:10:01.954Z,12.35
2022-10-23T03:11:02.049Z,12.36
2022-10-23T03:12:02.454Z,12.38
2022-10-23T03:13:02.834Z,12.38
2022-10-23T03:14:02.803Z,12.38
2022-10-23T03:15:02.648Z,12.39
2022-10-23T03:16:02.449Z,12.38
2022-10-23T03:17:01.635Z,12.39
2022-10-23T03:18:01.755Z,12.38
2022-10-23T03:19:02.104Z,12.39
2022-10-23T03:20:01.746Z,12.41
2022-10-23T03:21:02.249Z,12.38
2022-10-23T03:22:01.719Z,12.38
2022-10-23T03:23:01.891Z,12.41
2022-10-23T03:24:02.333Z,12.42
2022-10-23T03:25:01.998Z,12.44
2022-10-23T03:26:01.728Z,12.43
2022-10-23T03:27:02.257Z,12.45
2022-10-23T03:28:02.367Z,12.45
2022-10-23T03:29:02.254Z,12.45
2022-10-23T03:30:02.849Z,12.46
2022-10-23T03:31:02.477Z,12.44
2022-10-23T03:32:02.067Z,12.47
2022-10-23T03:33:02.483Z,12.48
2022-10-23T03:34:04.129Z,12.47
2022-10-23T03:35:01.947Z,12.49
2022-10-23T03:36:02.430Z,12.49
2022-10-23T03:37:02.650Z,12.52
2022-10-23T03:38:02.454Z,12.51
2022-10-23T03:39:02.767Z,12.50
2022-10-23T03:40:02.446Z,12.50
2022-10-23T03:41:02.294Z,12.49
2022-10-23T03:42:02.076Z,12.49
2022-10-23T03:43:01.958Z,12.49
2022-10-23T03:44:02.230Z,12.49
2022-10-23T03:45:01.902Z,12.48
2022-10-23T03:46:01.838Z,12.48
2022-10-23T03:47:02.326Z,12.49
2022-10-23T03:48:02.521Z,12.51
2022-10-23T03:49:02.365Z,12.52
2022-10-23T03:50:02.813Z,12.53
2022-10-23T03:51:02.778Z,12.52
2022-10-23T03:52:01.659Z,12.52
2022-10-23T03:53:01.887Z,12.53
2022-10-23T03:54:01.691Z,12.54
2022-10-23T03:55:01.489Z,12.57
2022-10-23T03:56:01.974Z,12.58
2022-10-23T03:57:01.754Z,12.58
2022-10-23T03:58:01.655Z,12.57
2022-10-23T03:59:01.985Z,12.61
2022-10-23T04:00:01.706Z,12.63
2022-10-23T04:01:01.994Z,12.64
2022-10-23T04:02:03.788Z,12.67
2022-10-23T04:03:03.523Z,12.67
2022-10-23T04:04:03.454Z,12.70
2022-10-23T04:05:03.278Z,12.70
2022-10-23T04:06:03.688Z,12.71
2022-10-23T04:07:03.016Z,12.73
2022-10-23T04:08:02.577Z,12.74
2022-10-23T04:09:03.082Z,12.74
2022-10-23T04:10:02.639Z,12.74
2022-10-23T04:11:03.116Z,12.76
2022-10-23T04:12:03.682Z,12.78
2022-10-23T04:13:03.337Z,12.77
2022-10-23T04:14:03.239Z,12.75
2022-10-23T04:15:03.077Z,12.79
2022-10-23T04:16:03.413Z,12.80
2022-10-23T04:17:03.064Z,12.82
2022-10-23T04:18:03.227Z,12.82
2022-10-23T04:19:03.268Z,12.77
2022-10-23T04:20:03.196Z,12.78
2022-10-23T04:21:03.713Z,12.75
2022-10-23T04:22:03.136Z,12.75
2022-10-23T04:23:03.746Z,12.72
2022-10-23T04:24:03.695Z,12.73
2022-10-23T04:25:03.605Z,12.67
2022-10-23T04:26:03.576Z,12.68
2022-10-23T04:27:03.575Z,12.70
2022-10-23T04:28:03.441Z,12.71
2022-10-23T04:29:03.829Z,12.68
2022-10-23T04:30:03.589Z,12.71
2022-10-23T04:31:03.421Z,12.66
2022-10-23T04:32:02.843Z,12.66
2022-10-23T04:33:03.002Z,12.63
2022-10-23T04:34:03.329Z,12.67
2022-10-23T04:35:02.797Z,12.60
2022-10-23T04:36:03.326Z,12.62
2022-10-23T04:37:03.263Z,12.64
2022-10-23T04:38:03.520Z,12.63
2022-10-23T04:39:03.217Z,12.65
2022-10-23T04:40:03.026Z,12.65
2022-10-23T04:41:03.547Z,12.67
2022-10-23T04:42:03.089Z,12.68
2022-10-23T04:43:02.787Z,12.67
2022-10-23T04:44:02.680Z,12.68
2022-10-23T04:45:02.880Z,12.69
2022-10-23T04:46:02.671Z,12.71
2022-10-23T04:47:03.232Z,12.73
2022-10-23T04:48:03.209Z,12.74
2022-10-23T04:49:03.139Z,12.76
2022-10-23T04:50:03.003Z,12.77
2022-10-23T04:51:03.082Z,12.78
2022-10-23T04:52:03.639Z,12.81
2022-10-23T04:53:03.680Z,12.81
2022-10-23T04:54:03.320Z,12.82
2022-10-23T04:55:03.624Z,12.83
2022-10-23T04:56:03.490Z,12.84
2022-10-23T04:57:03.353Z,12.84
2022-10-23T04:58:03.386Z,12.85
2022-10-23T04:59:02.983Z,12.85
2022-10-23T05:00:02.868Z,12.83
2022-10-23T05:01:03.122Z,12.83
2022-10-23T05:02:02.714Z,12.83
2022-10-23T05:03:02.525Z,12.79
2022-10-23T05:04:02.914Z,12.80
2022-10-23T05:05:02.594Z,12.75
2022-10-23T05:06:02.488Z,12.75
2022-10-23T05:07:02.403Z,12.73
2022-10-23T05:08:02.899Z,12.73
2022-10-23T05:09:02.706Z,12.73
2022-10-23T05:10:02.684Z,12.73
2022-10-23T05:11:02.345Z,12.66
2022-10-23T05:12:02.786Z,12.68
2022-10-23T05:13:02.637Z,12.66
2022-10-23T05:14:03.025Z,12.68
2022-10-23T05:15:02.719Z,12.72
2022-10-23T05:16:02.799Z,12.72
2022-10-23T05:17:03.365Z,12.74
2022-10-23T05:18:03.582Z,12.78
2022-10-23T05:19:03.323Z,12.74
2022-10-23T05:20:03.557Z,12.71
2022-10-23T05:21:03.405Z,12.73
2022-10-23T05:22:02.877Z,12.71
2022-10-23T05:23:02.497Z,12.67
2022-10-23T05:24:02.656Z,12.66
2022-10-23T05:25:02.866Z,12.62
2022-10-23T05:26:02.755Z,12.60
2022-10-23T05:27:03.302Z,12.56
2022-10-23T05:28:03.318Z,12.56
2022-10-23T05:29:03.225Z,12.54
2022-10-23T05:30:03.101Z,12.49
2022-10-23T05:31:03.474Z,12.44
2022-10-23T05:32:02.839Z,12.42
2022-10-23T05:33:02.686Z,12.42
2022-10-23T05:34:02.407Z,12.42
2022-10-23T05:35:02.579Z,12.40
2022-10-23T05:36:02.363Z,12.37
2022-10-23T05:37:03.505Z,12.42
2022-10-23T05:38:03.421Z,12.39
2022-10-23T05:39:03.596Z,12.37
2022-10-23T05:40:03.498Z,12.43
2022-10-23T05:41:03.521Z,12.45
2022-10-23T05:42:03.157Z,12.45
2022-10-23T05:43:02.785Z,12.51
2022-10-23T05:44:03.015Z,12.53
2022-10-23T05:45:03.098Z,12.53
2022-10-23T05:46:02.911Z,12.58
2022-10-23T05:47:03.467Z,12.61
2022-10-23T05:48:10.941Z,12.63
2022-10-23T05:49:03.539Z,12.63
2022-10-23T05:50:03.018Z,12.66
2022-10-23T05:51:03.466Z,12.65
2022-10-23T05:52:03.690Z,12.65
2022-10-23T05:53:03.096Z,12.67
2022-10-23T05:54:03.077Z,12.67
2022-10-23T05:55:03.733Z,12.66
2022-10-23T05:56:03.219Z,12.61
2022-10-23T05:57:03.339Z,12.61
2022-10-23T05:58:03.045Z,12.58
2022-10-23T05:59:02.887Z,12.50
2022-10-23T06:00:03.224Z,12.50
2022-10-23T06:01:02.734Z,12.49
2022-10-23T06:02:02.326Z,12.51
2022-10-23T06:03:02.775Z,12.51
2022-10-23T06:04:02.470Z,12.53
2022-10-23T06:05:02.145Z,12.55
2022-10-23T06:06:02.205Z,12.51
2022-10-23T06:07:02.840Z,12.54
2022-10-23T06:08:02.858Z,12.53
2022-10-23T06:09:03.173Z,12.53
2022-10-23T06:10:03.333Z,12.46
2022-10-23T06:11:03.245Z,12.45
2022-10-23T06:12:02.416Z,12.44
2022-10-23T06:13:02.674Z,12.42
2022-10-23T06:14:02.196Z,12.42
2022-10-23T06:15:02.201Z,12.41
2022-10-23T06:16:02.431Z,12.38
2022-10-23T06:17:02.565Z,12.37
2022-10-23T06:18:02.867Z,12.36
2022-10-23T06:19:03.399Z,12.34
2022-10-23T06:20:02.754Z,12.31
2022-10-23T06:21:02.770Z,12.29
2022-10-23T06:22:02.646Z,12.27
2022-10-23T06:23:03.025Z,12.24
2022-10-23T06:24:02.864Z,12.26
2022-10-23T06:25:02.892Z,12.26
2022-10-23T06:26:03.151Z,12.25
2022-10-23T06:27:02.954Z,12.27
2022-10-23T06:28:03.361Z,12.26
2022-10-23T06:29:03.380Z,12.26
2022-10-23T06:30:03.292Z,12.31
2022-10-23T06:31:03.447Z,12.32
2022-10-23T06:32:02.675Z,12.37
2022-10-23T06:33:04.607Z,12.36
2022-10-23T06:34:02.761Z,12.36
2022-10-23T06:35:02.759Z,12.34
2022-10-23T06:36:02.538Z,12.36
2022-10-23T06:37:02.743Z,12.41
2022-10-23T06:38:02.914Z,12.42
2022-10-23T06:39:02.719Z,12.44
2022-10-23T06:40:03.045Z,12.47
2022-10-23T06:41:03.036Z,12.53
2022-10-23T06:42:03.398Z,12.53
2022-10-23T06:43:03.171Z,12.52
2022-10-23T06:44:03.085Z,12.57
2022-10-23T06:45:06.367Z,12.56
2022-10-23T06:46:03.452Z,12.55
2022-10-23T06:47:03.649Z,12.56
2022-10-23T06:48:03.283Z,12.56
2022-10-23T06:49:03.211Z,12.59
2022-10-23T06:50:03.386Z,12.61
2022-10-23T06:51:03.269Z,12.60
2022-10-23T06:52:02.738Z,12.60
2022-10-23T06:53:02.330Z,12.61
2022-10-23T06:54:02.651Z,12.63
2022-10-23T06:55:02.300Z,12.62
2022-10-23T06:56:02.457Z,12.64
2022-10-23T06:57:02.438Z,12.67
2022-10-23T06:58:02.333Z,12.71
2022-10-23T06:59:02.289Z,12.74
2022-10-23T07:00:02.315Z,12.77
2022-10-23T07:01:02.629Z,12.82
2022-10-23T07:02:03.049Z,12.82
2022-10-23T07:03:03.050Z,12.82
2022-10-23T07:04:03.085Z,12.85
2022-10-23T07:05:02.927Z,12.87
2022-10-23T07:06:02.899Z,12.87
2022-10-23T07:07:02.481Z,12.88
2022-10-23T07:08:02.605Z,12.89
2022-10-23T07:09:02.633Z,12.93
2022-10-23T07:10:02.705Z,12.96
2022-10-23T07:11:02.606Z,12.97
2022-10-23T07:12:02.987Z,12.94
2022-10-23T07:13:02.820Z,12.97
2022-10-23T07:14:02.834Z,12.96
2022-10-23T07:15:02.794Z,12.99
2022-10-23T07:16:02.744Z,12.99
2022-10-23T07:17:02.472Z,13.03
2022-10-23T07:18:02.325Z,13.01
2022-10-23T07:19:02.460Z,13.04
2022-10-23T07:20:02.252Z,13.03
2022-10-23T07:21:02.158Z,13.07
2022-10-23T07:22:02.519Z,13.10
2022-10-23T07:23:02.368Z,13.08
2022-10-23T07:24:02.570Z,13.08
2022-10-23T07:25:02.354Z,13.09
2022-10-23T07:26:02.771Z,13.10
2022-10-23T07:27:03.123Z,13.14
2022-10-23T07:28:03.031Z,13.13
2022-10-23T07:29:03.028Z,13.11
2022-10-23T07:30:03.146Z,13.07
2022-10-23T07:31:02.752Z,13.11
2022-10-23T07:32:02.494Z,13.14
2022-10-23T07:33:02.489Z,13.15
2022-10-23T07:34:02.418Z,13.15
2022-10-23T07:35:02.457Z,13.17
2022-10-23T07:36:02.529Z,13.16
2022-10-23T07:37:02.465Z,13.17
2022-10-23T07:38:02.524Z,13.15
2022-10-23T07:39:02.306Z,13.15
2022-10-23T07:40:02.645Z,13.20
2022-10-23T07:41:02.541Z,13.18
2022-10-23T07:42:02.586Z,13.19
2022-10-23T07:43:02.439Z,13.17
2022-10-23T07:44:02.796Z,13.17
2022-10-23T07:45:02.491Z,13.18
2022-10-23T07:46:02.582Z,13.23
2022-10-23T07:47:03.148Z,13.26
2022-10-23T07:48:03.210Z,13.30
2022-10-23T07:49:02.830Z,13.37
2022-10-23T07:50:02.901Z,13.41
2022-10-23T07:51:03.187Z,13.48
2022-10-23T07:53:03.310Z,13.52
2022-10-23T07:54:02.830Z,13.52
2022-10-23T07:55:03.347Z,13.56
2022-10-23T07:56:03.432Z,13.56
2022-10-23T07:57:02.897Z,13.60
2022-10-23T07:58:02.911Z,13.66
2022-10-23T07:59:02.937Z,13.65
2022-10-23T08:00:02.828Z,13.71
2022-10-23T08:01:03.003Z,13.75
2022-10-23T08:02:03.046Z,13.75
2022-10-23T08:03:02.714Z,13.76
2022-10-23T08:04:02.624Z,13.75
2022-10-23T08:05:02.999Z,13.76
2022-10-23T08:06:02.529Z,13.76
2022-10-23T08:07:02.266Z,13.82
2022-10-23T08:08:02.381Z,13.90
2022-10-23T08:09:05.420Z,13.93
2022-10-23T08:10:02.411Z,13.99
2022-10-23T08:11:02.210Z,14.01
2022-10-23T08:12:02.977Z,14.00
2022-10-23T08:13:02.927Z,14.06
2022-10-23T08:14:02.720Z,14.10
2022-10-23T08:15:02.669Z,14.15
2022-10-23T08:16:02.960Z,14.17
2022-10-23T08:18:02.508Z,14.28
2022-10-23T08:19:02.160Z,14.34
2022-10-23T08:20:02.074Z,14.39
2022-10-23T08:21:02.198Z,14.45
2022-10-23T08:22:02.278Z,14.48
2022-10-23T08:23:02.065Z,14.54
2022-10-23T08:24:01.831Z,14.58
2022-10-23T08:25:01.914Z,14.62
2022-10-23T08:26:02.064Z,14.69
2022-10-23T08:27:02.202Z,14.72
2022-10-23T08:28:05.547Z,14.76
2022-10-23T08:29:02.396Z,14.80
2022-10-23T08:30:02.815Z,14.84
2022-10-23T08:31:02.851Z,14.88
2022-10-23T08:32:02.881Z,14.93
2022-10-23T08:33:02.663Z,15.01
2022-10-23T08:34:02.292Z,15.06
2022-10-23T08:35:02.819Z,15.11
2022-10-23T08:36:02.270Z,15.14
2022-10-23T08:37:02.997Z,15.20
2022-10-23T08:38:02.464Z,15.23
2022-10-23T08:39:02.905Z,15.27
2022-10-23T08:40:02.965Z,15.31
2022-10-23T08:41:02.809Z,15.36
2022-10-23T08:42:03.217Z,15.43
2022-10-23T08:43:02.818Z,15.47
2022-10-23T08:44:03.015Z,15.50
2022-10-23T08:45:02.967Z,15.53
2022-10-23T08:46:04.230Z,15.58
2022-10-23T08:47:02.623Z,15.65
2022-10-23T08:48:02.346Z,15.69
2022-10-23T08:49:02.354Z,15.75
2022-10-23T08:50:02.419Z,15.80
2022-10-23T08:51:02.494Z,15.87
2022-10-23T08:52:03.204Z,15.92
2022-10-23T08:53:03.154Z,15.98
2022-10-23T08:54:03.005Z,16.04
2022-10-23T08:55:02.949Z,16.09
2022-10-23T08:56:02.999Z,16.16
2022-10-23T08:57:01.744Z,16.21
2022-10-23T08:58:02.360Z,16.26
2022-10-23T08:59:02.014Z,16.31
2022-10-23T09:00:01.980Z,16.36
2022-10-23T09:01:02.265Z,16.42
2022-10-23T09:02:02.797Z,16.47
2022-10-23T09:03:02.559Z,16.51
2022-10-23T09:04:02.566Z,16.53
2022-10-23T09:05:02.512Z,16.56
2022-10-23T09:06:02.330Z,16.56
2022-10-23T09:07:02.404Z,16.59
2022-10-23T09:08:02.422Z,16.62
2022-10-23T09:09:02.996Z,16.62
2022-10-23T09:10:02.812Z,16.65
2022-10-23T09:11:02.807Z,16.69
2022-10-23T09:12:02.535Z,16.71
2022-10-23T09:13:02.981Z,16.76
2022-10-23T09:14:02.994Z,16.79
2022-10-23T09:15:02.953Z,16.85
2022-10-23T09:16:02.835Z,16.89
2022-10-23T09:17:01.940Z,16.94
2022-10-23T09:18:02.390Z,17.00
2022-10-23T09:19:02.382Z,17.06
2022-10-23T09:20:01.821Z,17.09
2022-10-23T09:21:02.009Z,17.13
2022-10-23T09:22:02.144Z,17.20
2022-10-23T09:23:02.067Z,17.28
2022-10-23T09:24:02.160Z,17.34
2022-10-23T09:25:02.303Z,17.41
2022-10-23T09:26:02.085Z,17.47
2022-10-23T09:27:02.806Z,17.56
2022-10-23T09:28:05.472Z,17.58
2022-10-23T09:29:03.114Z,17.63
2022-10-23T09:30:03.285Z,17.67
2022-10-23T09:31:03.199Z,17.69
2022-10-23T09:32:02.096Z,17.70
2022-10-23T09:33:02.037Z,17.71
2022-10-23T09:34:02.057Z,17.76
2022-10-23T09:35:02.088Z,17.77
2022-10-23T09:36:02.649Z,17.72
2022-10-23T09:37:02.412Z,17.74
2022-10-23T09:38:02.351Z,17.75
2022-10-23T09:39:02.469Z,17.75
2022-10-23T09:40:02.775Z,17.73
2022-10-23T09:41:02.811Z,17.74
2022-10-23T09:42:02.816Z,17.70
2022-10-23T09:43:02.930Z,17.66
2022-10-23T09:44:02.975Z,17.68
2022-10-23T09:45:02.909Z,17.70
2022-10-23T09:46:02.834Z,17.70
2022-10-23T09:47:02.571Z,17.69
2022-10-23T09:48:02.970Z,17.69
2022-10-23T09:49:05.043Z,17.68
2022-10-23T09:50:02.898Z,17.70
2022-10-23T09:51:02.933Z,17.68
2022-10-23T09:52:02.862Z,17.71
2022-10-23T09:53:02.777Z,17.70
2022-10-23T09:54:02.736Z,17.72
2022-10-23T09:55:02.727Z,17.67
2022-10-23T09:56:02.739Z,17.69
2022-10-23T09:57:02.378Z,17.69
2022-10-23T09:58:02.564Z,17.69
2022-10-23T09:59:02.499Z,17.71
2022-10-23T10:00:02.554Z,17.69
2022-10-23T10:01:02.894Z,17.73
2022-10-23T10:02:03.013Z,17.73
2022-10-23T10:03:02.809Z,17.77
2022-10-23T10:04:02.719Z,17.78
2022-10-23T10:05:02.756Z,17.77
2022-10-23T10:06:02.790Z,17.77
2022-10-23T10:07:02.949Z,17.78
2022-10-23T10:08:02.981Z,17.77
2022-10-23T10:09:03.249Z,17.82
2022-10-23T10:10:03.257Z,17.85
2022-10-23T10:11:03.148Z,17.83
2022-10-23T10:12:03.425Z,17.84
2022-10-23T10:13:03.363Z,17.81
2022-10-23T10:14:03.468Z,17.78
2022-10-23T10:15:03.244Z,17.78
2022-10-23T10:16:03.270Z,17.73
2022-10-23T10:17:03.157Z,17.72
2022-10-23T10:18:03.167Z,17.67
2022-10-23T10:19:03.030Z,17.68
2022-10-23T10:20:05.449Z,17.66
2022-10-23T10:21:02.981Z,17.69
2022-10-23T10:22:03.588Z,17.72
2022-10-23T10:23:03.620Z,17.73
2022-10-23T10:24:03.534Z,17.73
2022-10-23T10:25:03.521Z,17.72
2022-10-23T10:26:03.542Z,17.68
2022-10-23T10:27:03.262Z,17.69
2022-10-23T10:28:02.774Z,17.65
2022-10-23T10:29:02.839Z,17.67
2022-10-23T10:30:03.275Z,17.67
2022-10-23T10:31:03.269Z,17.65
2022-10-23T10:32:03.650Z,17.65
2022-10-23T10:33:03.785Z,17.66
2022-10-23T10:34:03.610Z,17.66
2022-10-23T10:35:03.544Z,17.63
2022-10-23T10:36:03.618Z,17.64
2022-10-23T10:37:03.337Z,17.69
2022-10-23T10:38:02.990Z,17.69
2022-10-23T10:39:02.970Z,17.70
2022-10-23T10:40:02.998Z,17.69
2022-10-23T10:41:03.542Z,17.70
2022-10-23T10:42:03.768Z,17.73
2022-10-23T10:43:03.570Z,17.69
2022-10-23T10:44:03.604Z,17.70
2022-10-23T10:45:03.891Z,17.76
2022-10-23T10:46:03.964Z,17.73
2022-10-23T10:47:03.228Z,17.74
2022-10-23T10:48:03.480Z,17.76
2022-10-23T10:49:03.080Z,17.72
2022-10-23T10:50:03.314Z,17.72
2022-10-23T10:51:02.995Z,17.72
2022-10-23T10:52:03.558Z,17.73
2022-10-23T10:53:03.566Z,17.78
2022-10-23T10:54:03.751Z,17.80
2022-10-23T10:55:03.322Z,17.83
2022-10-23T10:56:03.325Z,17.85
2022-10-23T10:57:03.258Z,17.85
2022-10-23T10:58:03.095Z,17.85
2022-10-23T10:59:02.701Z,17.90
2022-10-23T11:00:02.653Z,17.97
2022-10-23T11:01:02.998Z,17.93
2022-10-23T11:02:02.598Z,17.99
2022-10-23T11:03:02.433Z,17.95
2022-10-23T11:04:02.425Z,17.98
2022-10-23T11:05:02.614Z,17.98
2022-10-23T11:06:02.376Z,17.97
2022-10-23T11:07:02.852Z,17.95
2022-10-23T11:08:02.389Z,17.87
2022-10-23T11:09:19.375Z,17.88
2022-10-23T11:10:02.610Z,17.84
2022-10-23T11:11:02.664Z,17.84
2022-10-23T11:12:02.915Z,17.80
2022-10-23T11:13:02.662Z,17.83
2022-10-23T11:14:02.539Z,17.79
2022-10-23T11:15:02.945Z,17.80
2022-10-23T11:16:02.699Z,17.84
2022-10-23T11:17:02.421Z,17.77
2022-10-23T11:18:01.947Z,17.77
2022-10-23T11:19:01.982Z,17.80
2022-10-23T11:20:02.594Z,17.82
2022-10-23T11:21:02.203Z,17.80
2022-10-23T11:22:03.112Z,17.78
2022-10-23T11:23:02.831Z,17.79
2022-10-23T11:24:02.947Z,17.75
2022-10-23T11:25:02.931Z,17.73
2022-10-23T11:26:03.086Z,17.71
2022-10-23T11:27:02.003Z,17.72
2022-10-23T11:28:04.444Z,17.75
2022-10-23T11:29:02.019Z,17.78
2022-10-23T11:30:02.059Z,17.82
2022-10-23T11:31:02.105Z,17.82
2022-10-23T11:32:02.085Z,17.79
2022-10-23T11:33:02.670Z,17.82
2022-10-23T11:34:02.232Z,17.86
2022-10-23T11:35:02.140Z,17.89
2022-10-23T11:36:02.184Z,17.90
2022-10-23T11:37:02.181Z,17.96
2022-10-23T11:38:02.834Z,18.00
2022-10-23T11:39:02.459Z,18.00
2022-10-23T11:40:02.319Z,18.00
2022-10-23T11:41:02.240Z,18.01
2022-10-23T11:42:02.377Z,18.02
2022-10-23T11:43:02.961Z,18.04
2022-10-23T11:44:02.522Z,18.04
2022-10-23T11:45:02.968Z,18.00
2022-10-23T11:46:02.505Z,17.93
2022-10-23T11:47:02.482Z,17.92
2022-10-23T11:48:03.139Z,17.98
2022-10-23T11:49:02.991Z,17.97
2022-10-23T11:50:03.038Z,17.96
2022-10-23T11:51:05.086Z,18.00
2022-10-23T11:52:02.926Z,17.96
2022-10-23T11:53:13.399Z,17.99
2022-10-23T11:54:02.519Z,18.05
2022-10-23T11:55:02.182Z,18.04
2022-10-23T11:56:02.466Z,18.09
2022-10-23T11:57:02.239Z,18.16
2022-10-23T11:58:02.464Z,18.17
2022-10-23T11:59:02.562Z,18.19
2022-10-23T12:00:02.598Z,18.25
2022-10-23T12:01:02.811Z,18.23
2022-10-23T12:02:02.770Z,18.23
2022-10-23T12:03:03.028Z,18.21
2022-10-23T12:04:03.062Z,18.20
2022-10-23T12:05:03.513Z,18.26
2022-10-23T12:06:03.298Z,18.23
2022-10-23T12:07:03.256Z,18.24
2022-10-23T12:08:02.955Z,18.19
2022-10-23T12:09:03.043Z,18.26
2022-10-23T12:10:03.065Z,18.29
2022-10-23T12:11:02.710Z,18.34
2022-10-23T12:12:02.703Z,18.36
2022-10-23T12:13:03.487Z,18.33
2022-10-23T12:14:03.550Z,18.33
2022-10-23T12:15:03.423Z,18.30
2022-10-23T12:16:03.411Z,18.29
2022-10-23T12:17:03.304Z,18.30
2022-10-23T12:18:03.120Z,18.32
2022-10-23T12:19:02.992Z,18.37
2022-10-23T12:20:03.031Z,18.38
2022-10-23T12:21:02.889Z,18.40
2022-10-23T12:22:03.257Z,18.43
2022-10-23T12:23:03.255Z,18.42
2022-10-23T12:24:03.158Z,18.52
2022-10-23T12:25:03.165Z,18.57
2022-10-23T12:26:03.037Z,18.54
2022-10-23T12:27:02.967Z,18.57
2022-10-23T12:28:03.322Z,18.55
2022-10-23T12:29:03.895Z,18.57
2022-10-23T12:30:03.371Z,18.54
2022-10-23T12:31:03.347Z,18.53
2022-10-23T12:32:03.676Z,18.57
2022-10-23T12:33:03.060Z,18.52
2022-10-23T12:34:02.991Z,18.53
2022-10-23T12:35:03.088Z,18.56
2022-10-23T12:36:03.596Z,18.57
2022-10-23T12:37:03.410Z,18.61
2022-10-23T12:38:02.942Z,18.67
2022-10-23T12:39:02.683Z,18.68
2022-10-23T12:40:02.932Z,18.71
2022-10-23T12:41:02.878Z,18.69
2022-10-23T12:42:02.833Z,18.69
2022-10-23T12:43:03.514Z,18.74
2022-10-23T12:44:03.377Z,18.76
2022-10-23T12:45:03.383Z,18.81
2022-10-23T12:46:03.367Z,18.84
2022-10-23T12:47:03.142Z,18.88
2022-10-23T12:48:03.371Z,18.90
2022-10-23T12:49:03.773Z,18.95
2022-10-23T12:50:03.722Z,19.03
2022-10-23T12:51:03.713Z,19.10
2022-10-23T12:52:03.464Z,19.16
2022-10-23T12:53:02.931Z,19.25
2022-10-23T12:54:02.802Z,19.29
2022-10-23T12:55:02.828Z,19.38
2022-10-23T12:56:02.850Z,19.43